createdAt,value
2023-05-01T00:00:30.194Z,84.82
2023-05-01T00:05:04.770Z,85.22
2023-05-01T00:09:22.366Z,85.57
2023-05-01T00:13:40.164Z,85.29
2023-05-01T00:17:58.011Z,85.22
2023-05-01T00:22:16.552Z,84.99
2023-05-01T00:26:34.088Z,84.88
2023-05-01T00:30:52.554Z,84.88
2023-05-01T00:35:10.081Z,85.05
2023-05-01T00:39:28.020Z,85.34
2023-05-01T00:43:45.743Z,85.39
2023-05-01T00:48:03.768Z,85.30
2023-05-01T00:52:21.411Z,85.59
2023-05-01T00:56:39.182Z,85.62
2023-05-01T01:00:57.482Z,85.60
2023-05-01T01:05:15.318Z,85.93
2023-05-01T01:10:14.641Z,86.14
2023-05-01T01:14:45.943Z,86.13
2023-05-01T01:19:26.115Z,86.01
2023-05-01T01:24:24.678Z,85.90
2023-05-01T01:29:37.055Z,86.01
2023-05-01T01:34:02.165Z,86.09
2023-05-01T01:38:31.638Z,86.13
2023-05-01T01:42:55.614Z,86.12
2023-05-01T01:47:15.579Z,86.10
2023-05-01T01:51:34.613Z,86.19
2023-05-01T01:55:54.929Z,86.08
2023-05-01T02:00:14.494Z,85.92
2023-05-01T02:04:33.251Z,86.11
2023-05-01T02:08:52.188Z,86.13
2023-05-01T02:13:12.574Z,86.28
2023-05-01T02:17:30.966Z,86.52
2023-05-01T02:21:50.639Z,86.80
2023-05-01T02:26:13.850Z,86.28
2023-05-01T02:30:32.790Z,86.05
2023-05-01T02:34:50.455Z,86.22
2023-05-01T02:39:08.995Z,86.23
2023-05-01T02:43:28.990Z,86.38
2023-05-01T02:47:51.913Z,86.38
2023-05-01T02:52:10.372Z,86.19
2023-05-01T02:56:31.484Z,86.06
2023-05-01T03:00:50.223Z,86.08
2023-05-01T03:05:09.013Z,86.31
2023-05-01T03:09:26.925Z,86.53
2023-05-01T03:13:44.677Z,86.47
2023-05-01T03:18:02.939Z,86.31
2023-05-01T03:22:21.490Z,86.34
2023-05-01T03:26:39.320Z,86.62
2023-05-01T03:30:56.971Z,86.71
2023-05-01T03:35:14.978Z,86.95
2023-05-01T03:39:32.564Z,87.03
2023-05-01T03:43:51.165Z,87.09
2023-05-01T03:48:08.775Z,86.91
2023-05-01T03:52:27.009Z,86.71
2023-05-01T03:56:44.501Z,86.59
2023-05-01T04:01:03.291Z,86.60
2023-05-01T04:05:21.737Z,86.54
2023-05-01T04:09:39.493Z,86.48
2023-05-01T04:13:57.027Z,86.43
2023-05-01T04:18:14.907Z,86.34
2023-05-01T04:22:33.525Z,86.27
2023-05-01T04:26:51.102Z,86.30
2023-05-01T04:31:08.858Z,85.86
2023-05-01T04:35:27.203Z,85.26
2023-05-01T04:39:44.933Z,84.02
2023-05-01T04:44:02.739Z,82.47
2023-05-01T04:48:20.411Z,81.06
2023-05-01T04:52:38.303Z,80.26
2023-05-01T04:56:56.037Z,79.86
2023-05-01T05:01:13.816Z,79.05
2023-05-01T05:05:31.382Z,77.51
2023-05-01T05:09:49.391Z,75.47
2023-05-01T05:14:06.935Z,73.93
2023-05-01T05:18:24.653Z,72.34
2023-05-01T05:22:42.496Z,73.05
2023-05-01T05:27:01.642Z,69.71
2023-05-01T05:31:19.283Z,67.42
2023-05-01T05:35:37.262Z,65.46
2023-05-01T05:39:55.230Z,63.38
2023-05-01T05:44:13.007Z,61.65
2023-05-01T05:48:30.741Z,60.35
2023-05-01T05:52:48.421Z,57.83
2023-05-01T05:57:06.049Z,57.54
2023-05-01T06:01:23.890Z,60.29
2023-05-01T06:05:41.890Z,60.36
2023-05-01T06:10:04.571Z,59.72
2023-05-01T06:14:22.360Z,58.94
2023-05-01T06:18:39.993Z,57.36
2023-05-01T06:22:58.238Z,55.18
2023-05-01T06:27:16.040Z,55.19
2023-05-01T06:31:33.673Z,55.28
2023-05-01T06:35:51.931Z,53.57
2023-05-01T06:40:10.145Z,53.35
2023-05-01T06:44:27.809Z,51.22
2023-05-01T06:48:45.454Z,52.16
2023-05-01T06:53:03.463Z,50.20
2023-05-01T06:57:21.210Z,48.99
2023-05-01T07:01:39.018Z,47.85
2023-05-01T07:05:56.799Z,46.33
2023-05-01T07:10:14.779Z,47.33
2023-05-01T07:14:32.384Z,45.07
2023-05-01T07:18:50.256Z,46.15
2023-05-01T07:23:08.101Z,43.90
2023-05-01T07:27:26.175Z,45.21
2023-05-01T07:31:44.346Z,45.91
2023-05-01T07:36:02.253Z,44.65
2023-05-01T07:40:19.812Z,45.53
2023-05-01T07:44:37.657Z,45.54
2023-05-01T07:48:55.281Z,45.75
2023-05-01T07:53:12.970Z,42.30
2023-05-01T07:57:33.745Z,44.25
2023-05-01T08:01:51.653Z,43.91
2023-05-01T08:06:09.249Z,42.92
2023-05-01T08:10:28.816Z,44.58
2023-05-01T08:14:46.615Z,44.07
2023-05-01T08:19:04.536Z,41.92
2023-05-01T08:23:22.334Z,42.79
2023-05-01T08:27:40.586Z,43.93
2023-05-01T08:31:58.993Z,41.49
2023-05-01T08:36:17.805Z,42.33
2023-05-01T08:40:40.873Z,41.71
2023-05-01T08:45:01.494Z,41.75
2023-05-01T08:49:21.754Z,40.12
2023-05-01T08:53:41.667Z,38.52
2023-05-01T08:58:00.230Z,34.88
2023-05-01T09:02:18.863Z,36.60
2023-05-01T09:06:36.677Z,37.84
2023-05-01T09:10:56.984Z,34.75
2023-05-01T09:15:14.879Z,34.14
2023-05-01T09:19:32.925Z,35.78
2023-05-01T09:23:54.118Z,34.80
2023-05-01T09:28:12.068Z,34.64
2023-05-01T09:32:30.051Z,32.88
2023-05-01T09:36:48.523Z,32.45
2023-05-01T09:41:06.621Z,33.21
2023-05-01T09:45:27.034Z,32.53
2023-05-01T09:49:48.419Z,31.11
2023-05-01T09:54:19.669Z,29.10
2023-05-01T09:58:37.345Z,31.20
2023-05-01T10:02:55.281Z,29.17
2023-05-01T10:07:14.761Z,29.48
2023-05-01T10:12:00.404Z,30.47
2023-05-01T10:16:30.711Z,25.98
2023-05-01T10:20:48.607Z,27.97
2023-05-01T10:25:13.528Z,26.67
2023-05-01T10:29:32.482Z,25.88
2023-05-01T10:33:50.490Z,29.89
2023-05-01T10:38:19.598Z,25.31
2023-05-01T10:43:18.538Z,23.21
2023-05-01T10:47:41.768Z,24.14
2023-05-01T10:52:02.152Z,21.95
2023-05-01T10:56:25.629Z,23.67
2023-05-01T11:00:43.240Z,23.65
2023-05-01T11:05:01.713Z,21.31
2023-05-01T11:09:41.424Z,23.31
2023-05-01T11:14:04.977Z,21.84
2023-05-01T11:18:47.805Z,18.85
2023-05-01T11:23:05.480Z,23.91
2023-05-01T11:27:23.099Z,18.69
2023-05-01T11:31:40.464Z,17.63
2023-05-01T11:36:00.395Z,17.18
2023-05-01T11:40:30.820Z,17.67
2023-05-01T11:45:11.855Z,16.40
2023-05-01T11:49:29.899Z,14.48
2023-05-01T11:54:15.784Z,15.27
2023-05-01T11:58:34.643Z,14.48
2023-05-01T12:03:13.421Z,15.15
2023-05-01T12:07:32.770Z,14.29
2023-05-01T12:11:53.255Z,13.50
2023-05-01T12:16:11.768Z,13.23
2023-05-01T12:20:37.011Z,11.25
2023-05-01T12:24:54.965Z,13.00
2023-05-01T12:29:13.160Z,10.83
2023-05-01T12:33:30.852Z,10.75
2023-05-01T12:37:48.994Z,10.63
2023-05-01T12:42:14.416Z,10.95
2023-05-01T12:46:32.617Z,10.04
2023-05-01T12:50:55.031Z,12.19
2023-05-01T12:55:13.177Z,12.05
2023-05-01T12:59:31.600Z,9.76
2023-05-01T13:03:49.272Z,9.97
2023-05-01T13:08:07.352Z,10.40
2023-05-01T13:12:26.528Z,8.20
2023-05-01T13:16:47.453Z,10.61
2023-05-01T13:21:09.416Z,9.86
2023-05-01T13:25:27.687Z,10.92
2023-05-01T13:29:55.854Z,11.02
2023-05-01T13:34:19.013Z,9.79
2023-05-01T13:38:47.264Z,10.13
2023-05-01T13:43:05.230Z,10.81
2023-05-01T13:47:28.299Z,9.56
2023-05-01T13:51:46.951Z,11.99
2023-05-01T13:56:10.474Z,11.56
2023-05-01T14:00:28.297Z,11.07
2023-05-01T14:04:46.314Z,10.40
2023-05-01T14:09:06.049Z,10.20
2023-05-01T14:13:23.613Z,11.19
2023-05-01T14:17:41.585Z,9.71
2023-05-01T14:21:59.789Z,10.24
2023-05-01T14:26:19.784Z,10.49
2023-05-01T14:30:40.243Z,10.74
2023-05-01T14:34:59.881Z,11.67
2023-05-01T14:39:18.909Z,13.09
2023-05-01T14:43:37.269Z,12.16
2023-05-01T14:47:55.088Z,12.71
2023-05-01T14:52:14.272Z,11.04
2023-05-01T14:56:31.979Z,11.75
2023-05-01T15:00:49.646Z,11.33
2023-05-01T15:05:07.401Z,15.13
2023-05-01T15:09:24.760Z,15.22
2023-05-01T15:13:44.916Z,16.49
2023-05-01T15:18:03.783Z,15.14
2023-05-01T15:22:24.699Z,12.25
2023-05-01T15:26:42.803Z,11.84
2023-05-01T15:31:00.501Z,11.33
2023-05-01T15:35:18.168Z,11.61
2023-05-01T15:39:35.946Z,12.99
2023-05-01T15:43:53.676Z,12.15
2023-05-01T15:48:14.264Z,14.50
2023-05-01T15:52:31.976Z,14.11
2023-05-01T15:56:49.658Z,13.25
2023-05-01T16:01:09.085Z,14.11
2023-05-01T16:05:26.930Z,17.11
2023-05-01T16:09:44.574Z,19.29
2023-05-01T16:14:02.630Z,17.88
2023-05-01T16:18:23.333Z,18.56
2023-05-01T16:22:42.995Z,20.20
2023-05-01T16:27:00.597Z,20.96
2023-05-01T16:31:27.133Z,21.60
2023-05-01T16:35:48.625Z,22.62
2023-05-01T16:40:10.576Z,25.32
2023-05-01T16:44:28.340Z,27.99
2023-05-01T16:48:46.065Z,30.72
2023-05-01T16:53:03.604Z,32.90
2023-05-01T16:57:21.339Z,34.22
2023-05-01T17:01:38.446Z,35.65
2023-05-01T17:05:56.374Z,33.82
2023-05-01T17:10:13.907Z,33.77
2023-05-01T17:14:32.428Z,37.01
2023-05-01T17:18:49.976Z,37.46
2023-05-01T17:23:07.937Z,39.57
2023-05-01T17:27:25.364Z,41.00
2023-05-01T17:31:43.180Z,41.52
2023-05-01T17:36:00.871Z,42.93
2023-05-01T17:40:18.480Z,43.54
2023-05-01T17:44:36.295Z,45.52
2023-05-01T17:48:54.230Z,46.04
2023-05-01T17:53:12.207Z,48.32
2023-05-01T17:57:29.749Z,50.40
2023-05-01T18:01:48.656Z,50.74
2023-05-01T18:06:06.778Z,50.83
2023-05-01T18:10:30.252Z,51.74
2023-05-01T18:14:48.039Z,51.65
2023-05-01T18:19:05.597Z,51.98
2023-05-01T18:23:25.592Z,52.66
2023-05-01T18:27:44.853Z,53.55
2023-05-01T18:32:03.029Z,54.41
2023-05-01T18:36:20.899Z,54.17
2023-05-01T18:40:38.575Z,54.33
2023-05-01T18:44:57.100Z,54.97
2023-05-01T18:49:14.833Z,54.51
2023-05-01T18:53:32.399Z,56.12
2023-05-01T18:57:50.268Z,56.43
2023-05-01T19:02:08.107Z,56.12
2023-05-01T19:06:29.462Z,57.13
2023-05-01T19:10:47.172Z,56.94
2023-05-01T19:15:05.055Z,57.04
2023-05-01T19:19:23.182Z,57.27
2023-05-01T19:23:41.574Z,57.10
2023-05-01T19:28:02.273Z,56.94
2023-05-01T19:32:21.030Z,57.03
2023-05-01T19:36:38.872Z,56.94
2023-05-01T19:40:57.855Z,57.10
2023-05-01T19:45:17.713Z,57.14
2023-05-01T19:49:35.682Z,57.71
2023-05-01T19:53:53.513Z,57.24
2023-05-01T19:58:11.628Z,57.69
2023-05-01T20:02:29.911Z,57.76
2023-05-01T20:06:47.712Z,57.96
2023-05-01T20:11:05.620Z,58.48
2023-05-01T20:15:23.324Z,58.91
2023-05-01T20:19:44.294Z,59.29
2023-05-01T20:24:01.831Z,59.92
2023-05-01T20:28:20.963Z,60.16
2023-05-01T20:32:44.395Z,59.91
2023-05-01T20:37:02.723Z,59.88
2023-05-01T20:41:20.555Z,61.12
2023-05-01T20:45:38.332Z,61.16
2023-05-01T20:49:57.032Z,62.01
2023-05-01T20:54:14.994Z,62.84
2023-05-01T20:58:32.677Z,63.43
2023-05-01T21:02:52.274Z,64.36
2023-05-01T21:07:10.405Z,63.63
2023-05-01T21:11:28.105Z,63.54
2023-05-01T21:15:45.783Z,63.90
2023-05-01T21:20:10.945Z,64.39
2023-05-01T21:24:28.609Z,65.05
2023-05-01T21:28:46.572Z,66.09
2023-05-01T21:33:11.855Z,67.60
2023-05-01T21:37:30.216Z,68.71
2023-05-01T21:41:49.345Z,69.20
2023-05-01T21:46:15.512Z,69.32
2023-05-01T21:50:40.352Z,70.87
2023-05-01T21:54:58.184Z,71.72
2023-05-01T21:59:18.059Z,72.61
2023-05-01T22:03:41.926Z,73.24
2023-05-01T22:08:00.637Z,73.37
2023-05-01T22:12:18.657Z,73.59
2023-05-01T22:16:36.198Z,74.03
2023-05-01T22:20:54.121Z,74.76
2023-05-01T22:25:12.260Z,75.06
2023-05-01T22:29:29.783Z,75.32
2023-05-01T22:33:47.955Z,75.75
2023-05-01T22:38:05.742Z,75.82
2023-05-01T22:42:23.475Z,76.22
2023-05-01T22:46:44.970Z,76.47
2023-05-01T22:51:02.815Z,76.69
2023-05-01T22:55:20.669Z,77.06
2023-05-01T22:59:39.740Z,77.45
2023-05-01T23:03:58.078Z,77.72
2023-05-01T23:08:15.810Z,77.69
2023-05-01T23:12:34.452Z,78.05
2023-05-01T23:16:52.181Z,77.98
2023-05-01T23:21:19.773Z,77.72
2023-05-01T23:25:44.487Z,77.96
2023-05-01T23:30:04.425Z,78.14
2023-05-01T23:34:22.516Z,77.99
2023-05-01T23:38:40.804Z,78.38
2023-05-01T23:42:58.957Z,78.38
2023-05-01T23:47:17.145Z,78.65
2023-05-01T23:51:35.406Z,78.85
2023-05-01T23:55:53.181Z,79.05
